Latest Weather Observations for Moree

IDN60801

Issued at 4:02 pm EDT Sunday 26 March 2017 (issued every 30 minutes, with the page automatically refreshed every 10 minutes)

About weather observations | Map of weather stations | Latest weather observations for NSW | Other Formats
Station Details ID: 053115 Name: MOREE AERO Lat: -29.49 Lon: 149.85 Height: 213.0 m
Data from the previous 72 hours. | See also: Recent months at Moree
Date/Time
EDT
Temp
°C
App
Temp
°C
Dew
Point
°C
Rel
Hum
%
Delta-T
°C
Wind Press
QNH
hPa
Press
MSL
hPa
Rain since
9am
mm
Dir  Spd
km/h
Gust
km/h
Spd
kts
Gust
kts
26/04:00pm 31.3 32.0 17.9 44 8.7 NNE 11 19 6 10 1012.6 1011.5 0.0
26/03:30pm 31.0 31.5 18.4 47 8.2 ENE 13 20 7 11 1012.9 1011.8 0.0
26/03:00pm 30.6 30.9 18.0 47 8.1 NE 13 20 7 11 1013.2 1012.1 0.0
26/02:30pm 30.1 30.0 17.9 48 7.9 NE 15 24 8 13 1013.8 1012.7 0.0
26/02:00pm 28.9 29.0 18.4 53 6.8 NE 15 20 8 11 1014.2 1013.1 0.0
26/01:30pm 27.9 27.9 18.0 55 6.3 NE 15 20 8 11 1014.9 1013.8 0.0
26/01:00pm 28.0 28.3 17.8 54 6.5 NNE 13 19 7 10 1015.3 1014.2 0.0
26/12:30pm 28.0 28.5 18.4 56 6.2 NNE 13 20 7 11 1015.8 1014.8 0.0
26/12:00pm 26.7 26.2 17.8 58 5.7 NNE 17 30 9 16 1016.2 1015.2 0.0
26/11:30am 26.4 26.0 18.8 63 4.9 NE 19 26 10 14 1016.4 1015.4 0.0
26/11:00am 25.4 25.7 18.8 67 4.2 NNE 15 19 8 10 1016.9 1015.8 0.0
26/10:30am 25.4 25.5 18.3 65 4.5 NNE 15 22 8 12 1017.1 1016.0 0.0
26/10:00am 25.3 24.5 18.5 66 4.3 NNE 20 28 11 15 1016.3 1015.3 0.0
26/09:30am 25.2 25.2 18.9 68 4.1 N 17 26 9 14 1016.3 1015.3 0.0
26/09:00am 24.8 24.6 19.4 72 3.5 NNE 19 28 10 15 1016.1 1015.1 0.0
26/08:30am 24.0 24.1 19.1 74 3.1 NE 17 20 9 11 1015.8 1014.8 0.0
26/08:00am 22.8 22.3 18.6 77 2.7 NE 19 24 10 13 1015.3 1014.2 0.0
26/07:30am 22.8 22.6 18.6 77 2.7 ENE 17 24 9 13 1014.8 1013.7 0.0
26/07:00am 22.5 21.9 18.5 78 2.5 ENE 19 28 10 15 1014.6 1013.5 0.0
26/06:30am 22.6 22.4 18.4 77 2.7 NE 17 20 9 11 1014.1 1013.0 0.0
26/06:00am 22.8 22.5 18.3 76 2.8 NE 17 22 9 12 1013.7 1012.6 0.0
26/05:30am 22.7 22.4 18.3 76 2.8 ENE 17 20 9 11 1013.5 1012.4 0.0
26/05:00am 23.2 23.1 17.9 72 3.3 NE 15 17 8 9 1012.9 1011.8 0.0
26/04:30am 23.7 23.2 17.7 69 3.8 NNE 17 22 9 12 1012.8 1011.7 0.0
26/04:00am 23.8 22.8 17.5 68 4.0 NNE 19 26 10 14 1012.9 1011.8 0.0
26/03:30am 24.0 23.0 17.5 67 4.1 NNE 19 26 10 14 1012.7 1011.6 0.0
26/03:00am 24.3 23.0 17.3 65 4.4 NNE 20 28 11 15 1013.0 1011.9 0.0
26/02:30am 24.5 23.2 17.2 63 4.6 NNE 20 26 11 14 1013.3 1012.2 0.0
26/02:00am 24.3 22.9 17.1 64 4.5 NNE 20 28 11 15 1013.5 1012.4 0.0
26/01:30am 24.5 23.2 17.2 63 4.6 NE 20 28 11 15 1013.8 1012.7 0.0
26/01:00am 24.4 24.5 17.4 65 4.4 NE 13 15 7 8 1014.0 1012.9 0.0
26/12:30am 24.6 24.6 17.3 64 4.6 NE 13 15 7 8 1014.2 1013.1 0.0
26/12:00am 25.6 25.1 17.0 59 5.4 NE 15 17 8 9 1014.2 1013.1 0.0
 
Date/Time
EDT
Temp
°C
App
Temp
°C
Dew
Point
°C
Rel
Hum
%
Delta-T
°C
Wind Press
QNH
hPa
Press
MSL
hPa
Rain since
9am
mm
Dir  Spd
km/h
Gust
km/h
Spd
kts
Gust
kts
25/11:30pm 26.0 25.2 17.1 58 5.6 NE 17 22 9 12 1014.0 1012.9 0.0
25/11:00pm 26.1 25.6 16.9 57 5.8 ENE 15 17 8 9 1014.5 1013.4 0.0
25/10:30pm 26.7 26.2 17.8 58 5.7 NE 17 17 9 9 1014.6 1013.5 0.0
25/10:00pm 25.7 25.6 17.9 62 5.0 ENE 15 19 8 10 1014.6 1013.5 0.0
25/09:30pm 25.8 25.8 18.0 62 5.0 ENE 15 19 8 10 1014.4 1013.3 0.0
25/09:00pm 26.3 26.2 17.9 60 5.3 ENE 15 20 8 11 1014.0 1012.9 0.0
25/08:30pm 26.9 27.5 17.7 57 5.8 E 11 15 6 8 1013.5 1012.4 0.0
25/08:00pm 27.6 28.5 17.5 54 6.4 ESE 9 11 5 6 1013.1 1012.0 0.0
25/07:30pm 28.3 29.1 17.2 51 7.0 E 9 11 5 6 1012.8 1011.7 0.0
25/07:00pm 29.4 30.4 16.9 47 7.9 NE 7 7 4 4 1012.7 1011.6 0.0
25/06:30pm 30.6 31.9 16.2 41 9.1 NE 4 7 2 4 1012.6 1011.5 0.0
25/06:00pm 31.4 32.3 16.6 41 9.4 NE 7 11 4 6 1012.4 1011.3 0.0
25/05:30pm 31.1 31.4 15.9 40 9.5 NNW 9 13 5 7 1012.4 1011.3 0.0
25/05:00pm 31.3 31.6 16.9 42 9.2 N 11 17 6 9 1012.4 1011.3 0.0
25/04:30pm 31.4 31.2 15.8 39 9.8 NNW 11 17 6 9 1012.6 1011.5 0.0
25/04:00pm 31.7 31.6 16.0 38 9.9 NNW 11 19 6 10 1012.9 1011.8 0.0
25/03:30pm 31.3 31.9 16.9 42 9.2 WNW 9 17 5 9 1013.4 1012.3 0.0
25/03:00pm 31.1 31.7 17.8 45 8.6 NW 11 20 6 11 1013.8 1012.7 0.0
25/02:30pm 30.9 31.3 17.2 43 8.8 NNE 11 26 6 14 1013.9 1012.8 0.0
25/02:00pm 30.7 30.9 17.7 45 8.4 N 13 20 7 11 1014.4 1013.3 0.0
25/01:30pm 30.1 29.0 17.2 46 8.2 N 19 28 10 15 1015.0 1013.9 0.0
25/01:00pm 30.2 29.8 18.0 48 7.9 NNE 17 30 9 16 1015.3 1014.2 0.0
25/12:30pm 29.0 28.0 16.5 46 7.9 N 17 28 9 15 1015.9 1014.9 0.0
25/12:00pm 28.0 26.6 16.9 51 7.0 NNE 20 30 11 16 1016.3 1015.3 0.0
25/11:30am 27.0 25.6 16.6 53 6.5 N 19 28 10 15 1016.5 1015.5 0.0
25/11:00am 27.0 25.2 16.9 54 6.3 NNE 22 32 12 17 1016.9 1015.8 0.0
25/10:30am 25.7 23.1 16.8 58 5.6 NE 26 32 14 17 1017.1 1016.0 0.0
25/10:00am 24.6 21.8 16.3 60 5.1 NE 26 30 14 16 1017.0 1015.9 0.0
25/09:30am 23.5 21.7 16.1 63 4.5 NE 20 26 11 14 1017.1 1016.0 0.0
25/09:00am 22.9 21.6 16.9 69 3.7 ENE 19 26 10 14 1017.1 1016.0 0.0
25/08:30am 22.0 20.5 16.7 72 3.3 ENE 20 28 11 15 1016.7 1015.6 0.0
25/08:00am 20.7 19.7 16.5 77 2.6 ENE 17 26 9 14 1016.3 1015.3 0.0
25/07:30am 19.6 18.5 16.4 82 1.9 E 17 22 9 12 1016.3 1015.3 0.0
25/07:00am 19.4 18.3 16.4 83 1.8 E 17 20 9 11 1016.0 1015.0 0.0
25/06:30am 19.5 18.8 16.3 82 1.9 E 15 19 8 10 1015.5 1014.4 0.0
25/06:00am 19.8 19.1 16.3 80 2.1 ENE 15 19 8 10 1015.3 1014.2 0.0
25/05:30am 20.1 19.0 16.3 79 2.3 ENE 17 24 9 13 1015.1 1014.0 0.0
25/05:00am 20.3 19.3 16.5 79 2.3 ENE 17 22 9 12 1015.1 1014.0 0.0
25/04:30am 20.7 20.0 16.5 77 2.6 ENE 15 19 8 10 1015.2 1014.1 0.0
25/04:00am 21.0 19.6 16.6 76 2.7 ENE 19 26 10 14 1014.9 1013.8 0.0
25/03:30am 21.0 20.0 16.6 76 2.7 E 17 24 9 13 1014.9 1013.8 0.0
25/03:00am 21.5 20.6 16.9 75 2.8 ENE 17 26 9 14 1015.1 1014.0 0.0
25/02:30am 21.6 19.9 17.2 76 2.7 E 22 30 12 16 1015.4 1014.3 0.0
25/02:00am 21.8 20.2 17.4 76 2.7 E 22 30 12 16 1015.5 1014.4 0.0
25/01:30am 22.3 19.9 17.4 74 3.1 E 26 32 14 17 1015.7 1014.7 0.0
25/01:00am 22.6 21.6 17.9 75 2.9 E 20 26 11 14 1015.8 1014.8 0.0
25/12:30am 22.9 21.1 17.8 73 3.2 E 24 28 13 15 1015.8 1014.8 0.0
25/12:00am 23.4 22.1 18.1 72 3.3 E 22 30 12 16 1015.7 1014.7 0.0
 
Date/Time
EDT
Temp
°C
App
Temp
°C
Dew
Point
°C
Rel
Hum
%
Delta-T
°C
Wind Press
QNH
hPa
Press
MSL
hPa
Rain since
9am
mm
Dir  Spd
km/h
Gust
km/h
Spd
kts
Gust
kts
24/11:30pm 23.6 22.2 18.0 71 3.5 E 22 32 12 17 1015.9 1014.9 0.0
24/11:00pm 24.4 23.6 18.1 68 4.0 E 19 24 10 13 1015.6 1014.5 0.0
24/10:30pm 24.5 24.1 18.0 67 4.1 E 17 24 9 13 1015.4 1014.3 0.0
24/10:00pm 24.8 24.3 17.8 65 4.4 ESE 17 22 9 12 1015.4 1014.3 0.0
24/09:30pm 25.2 23.5 18.2 65 4.5 ESE 24 32 13 17 1014.8 1013.7 0.0
24/09:00pm 25.4 24.7 18.6 66 4.4 E 20 24 11 13 1014.8 1013.7 0.0
24/08:30pm 26.1 24.4 19.0 65 4.6 E 26 35 14 19 1014.4 1013.3 0.0
24/08:00pm 26.7 26.1 19.8 66 4.5 E 22 30 12 16 1014.1 1013.0 0.0
24/07:30pm 27.6 27.4 19.4 61 5.4 ESE 19 26 10 14 1013.9 1012.8 0.0
24/07:00pm 28.4 26.1 18.5 55 6.4 ESE 28 33 15 18 1013.6 1012.5 0.0
24/06:30pm 29.5 27.0 18.0 50 7.4 SE 28 35 15 19 1013.2 1012.1 0.0
24/06:00pm 30.6 27.3 18.3 47 8.0 SE 33 39 18 21 1012.8 1011.7 0.0
24/05:52pm 31.1 28.6 18.1 46 8.4 SE 28 37 15 20 1012.7 1011.6 0.0
24/05:30pm 32.0 32.0 17.1 41 9.5 S 13 19 7 10 1012.4 1011.3 0.0
24/05:00pm 31.8 32.1 16.1 38 9.9 SSE 9 17 5 9 1012.3 1011.2 0.0
24/04:30pm 32.3 33.0 17.0 40 9.8 NNW 9 13 5 7 1012.5 1011.4 0.0
24/04:00pm 33.1 34.7 19.2 43 9.2 SE 9 15 5 8 1012.6 1011.5 0.0
24/03:30pm 32.1 33.2 17.9 42 9.2 SSE 9 13 5 7 1012.9 1011.8 0.0
24/03:00pm 31.7 33.0 17.6 43 9.1 NE 7 11 4 6 1013.4 1012.3 0.0
24/02:30pm 31.3 32.2 17.6 44 8.8 NNE 9 17 5 9 1013.9 1012.8 0.0
24/02:00pm 31.1 32.8 18.1 46 8.4 NNE 6 11 3 6 1014.5 1013.4 0.0
24/01:30pm 30.4 31.7 18.5 49 7.7 NNE 9 15 5 8 1014.8 1013.7 0.0
24/01:00pm 30.2 31.1 19.3 52 7.2 NNE 13 19 7 10 1015.1 1014.0 0.0
24/12:30pm 29.0 30.8 18.7 53 6.7 ENE 7 9 4 5 1015.8 1014.8 0.0
24/12:00pm 28.8 31.1 19.4 56 6.2 N 6 13 3 7 1016.3 1015.3 0.0
24/11:30am 27.8 29.4 19.1 59 5.7 ENE 9 15 5 8 1016.7 1015.6 0.0
24/11:00am 27.6 29.7 20.2 64 4.9 NE 9 13 5 7 1016.9 1015.8 0.0
24/10:30am 27.4 29.3 20.5 66 4.6 NNE 11 15 6 8 1016.8 1015.7 0.0
24/10:00am 26.6 27.6 20.2 68 4.2 NNE 15 22 8 12 1016.7 1015.6 0.0
24/09:30am 26.0 26.9 20.1 70 3.9 NE 15 19 8 10 1016.8 1015.7 0.0
24/09:00am 25.0 25.5 20.0 74 3.3 NE 17 24 9 13 1016.5 1015.5 0.0
24/08:30am 23.8 24.1 19.5 77 2.8 NE 17 20 9 11 1016.1 1015.1 0.0
24/08:00am 22.8 23.8 19.4 81 2.2 E 13 15 7 8 1015.8 1014.8 0.0
24/07:30am 21.8 22.3 19.2 85 1.7 ENE 15 19 8 10 1015.3 1014.2 0.0
24/07:00am 21.7 22.1 19.1 85 1.7 ENE 15 17 8 9 1014.9 1013.8 0.0
24/06:30am 22.0 22.5 19.2 84 1.8 ENE 15 20 8 11 1014.6 1013.5 0.0
24/06:00am 22.2 23.0 19.0 82 2.0 ENE 13 17 7 9 1014.3 1013.2 0.0
24/05:30am 22.5 22.6 19.1 81 2.2 NE 17 22 9 12 1014.2 1013.1 0.0
24/05:00am 22.8 23.0 19.4 81 2.2 ENE 17 24 9 13 1014.4 1013.3 0.0
24/04:30am 23.1 23.6 19.3 79 2.4 NE 15 20 8 11 1014.1 1013.0 0.0
24/04:00am 23.6 23.3 19.5 78 2.6 NE 20 26 11 14 1014.0 1012.9 0.0
24/03:30am 23.8 23.8 19.7 78 2.7 NNE 19 24 10 13 1014.3 1013.2 0.0
24/03:00am 23.9 24.8 20.0 79 2.5 NE 15 22 8 12 1014.9 1013.8 0.0
24/02:30am 24.1 23.6 20.0 78 2.7 NE 22 28 12 15 1014.9 1013.8 0.0
24/02:00am 24.5 23.6 19.8 75 3.1 NE 24 28 13 15 1015.3 1014.2 0.0
24/01:30am 25.4 25.8 19.8 71 3.7 NE 17 20 9 11 1015.3 1014.2 0.0
24/01:00am 25.5 26.2 19.6 70 3.8 NNE 15 19 8 10 1015.4 1014.3 0.0
24/12:30am 25.1 26.4 19.2 70 3.8 NNE 11 13 6 7 1015.2 1014.1 0.0
24/12:00am 25.7 26.5 19.1 67 4.3 NE 13 15 7 8 1015.3 1014.2 0.0
 
Date/Time
EDT
Temp
°C
App
Temp
°C
Dew
Point
°C
Rel
Hum
%
Delta-T
°C
Wind Press
QNH
hPa
Press
MSL
hPa
Rain since
9am
mm
Dir  Spd
km/h
Gust
km/h
Spd
kts
Gust
kts
23/11:30pm 26.1 26.4 18.8 64 4.7 NE 15 19 8 10 1015.2 1014.1 0.0
23/11:00pm 26.5 26.9 18.9 63 4.9 NE 15 20 8 11 1015.2 1014.1 0.0
23/10:30pm 26.7 26.9 19.3 64 4.8 NE 17 20 9 11 1015.0 1013.9 0.0
23/10:00pm 26.1 27.0 19.2 65 4.5 E 13 17 7 9 1014.7 1013.6 0.0
23/09:30pm 26.5 26.7 18.6 62 5.1 ESE 15 17 8 9 1014.7 1013.6 0.0
23/09:00pm 27.3 28.2 18.3 58 5.8 SSE 11 15 6 8 1014.5 1013.4 0.0
23/08:30pm 28.3 29.6 18.4 55 6.4 E 9 11 5 6 1014.3 1013.2 0.0
23/08:00pm 28.6 29.7 18.1 53 6.7 E 9 11 5 6 1013.7 1012.6 0.0
23/07:30pm 29.3 30.7 17.8 50 7.4 ESE 7 11 4 6 1013.2 1012.1 0.0
23/07:00pm 30.7 32.0 17.0 43 8.7 SE 6 9 3 5 1012.9 1011.8 0.0
23/06:30pm 31.4 32.1 16.2 40 9.6 ESE 7 9 4 5 1012.8 1011.7 0.0
23/06:00pm 32.0 33.1 17.1 41 9.5 SSE 7 13 4 7 1012.8 1011.7 0.0
23/05:30pm 32.2 32.3 16.5 39 10.0 ENE 11 13 6 7 1012.7 1011.6 0.0
23/05:00pm 31.8 32.3 16.5 39 9.7 N 9 15 5 8 1012.7 1011.6 0.0
23/04:30pm 32.3 33.1 17.4 41 9.6 ENE 9 13 5 7 1012.8 1011.7 0.0

Other Formats:

Comma delimited format used in spreadsheet applications
http://www.bom.gov.au/fwo/IDN60801/IDN60801.95527.axf

JavaScript Object Notation format (JSON) in row-major order
http://www.bom.gov.au/fwo/IDN60801/IDN60801.95527.json